x

North Nomad (46184) Wave Buoy

8:00am - Sat 23rd Jul 2016 All times are AKDT. -8 hours from GMT.

  • Sig Wave height 7.5ft
  • Peak Period 8s
  • Wind
    25mph, 31mph gusts
  • Sea Temp 58°f
  • Air Temp 56°f
  • Sea Pressure 1010.2mb
  • North Nomad
  • North Nomad

More Historic Weather Station data

Upgrade to MSW Pro to gain access to the past 30 days of data for over 8000 Wavebouys and Weather Stations around the globe.

Join Pro

Comparision Forecast

View Surf forecast
   
Sat 07/23 8:00am 7.5ft 8s 25 31 mph 1010.2mb 58f 56f
7:00am 7.5ft 7s 20 25 mph 1009.7mb 58f 57f
6:00am 7ft 7s 25 29 mph 1009.6mb 58f 56f
5:00am 6.5ft 7s 20 27 mph 1009.2mb 58f 57f
4:00am 7ft 7s 22 27 mph 1009.3mb 58f 57f
3:00am 7ft 6s 25 29 mph 1009.9mb 58f 56f
2:00am 6ft 7s 20 25 mph 1010mb 58f 56f
1:00am 7ft 7s 22 27 mph 1010.5mb 58f 56f
12:00am 6.5ft 7s 18 25 mph 1011mb 58f 56f
Fri 07/22 11:00pm 6ft 7s 20 25 mph 1011.6mb 58f 57f
10:00pm 6ft 7s 20 25 mph 1011.8mb 58f 56f
9:00pm 5.5ft 7s 18 22 mph 1012mb 58f 56f
8:00pm 5.5ft 8s 18 22 mph 1012.3mb 58f 56f
7:00pm 5ft 7s 20 22 mph 1012.3mb 58f 57f
6:00pm 5ft 7s 20 22 mph 1012.7mb 58f 57f
5:00pm 5ft 15s 18 20 mph 1013.1mb 58f 57f
4:00pm 5ft 7s 16 20 mph 1013.3mb 58f 57f
3:00pm 4.5ft 7s 18 22 mph 1013.5mb 58f 57f
2:00pm 4.5ft 5s 18 22 mph 1013.8mb 58f 57f
1:00pm 4.5ft 15s 16 20 mph 1013.8mb 58f 57f
12:00pm 4.5ft 7s 16 20 mph 1013.9mb 58f 57f
11:00am 4.5ft 8s 16 20 mph 1013.7mb 58f 57f
10:00am 4.5ft 14s 13 18 mph 1013.9mb 58f 57f
9:00am 4.5ft 15s 13 16 mph 1014.2mb 58f 56f
8:00am 4.5ft 7s 13 18 mph 1014.4mb 58f 56f
7:00am 4ft 8s 13 16 mph 1014.2mb 58f 57f
6:00am 4ft 7s 13 16 mph 1014.6mb 58f 56f
5:00am 4ft 8s 13 18 mph 1014.6mb 58f 56f
4:00am 3.5ft 14s 13 18 mph 1014.6mb 58f 57f
3:00am 3.5ft 8s 13 16 mph 1014.9mb 58f 57f
2:00am 4ft 8s 13 16 mph 1015.1mb 58f 58f
1:00am 4ft 8s 13 16 mph 1015.4mb 58f 58f
12:00am 4ft 8s 11 13 mph 1015.8mb 58f 58f
Thu 07/21 11:00pm 4ft 8s 11 13 mph 1016mb 58f 58f
10:00pm 4ft 8s 11 13 mph 1016.3mb 58f 58f
9:00pm 4.5ft 8s 9 11 mph 1016.1mb 58f 58f
8:00pm 4ft 8s 9 11 mph 1016.3mb 58f 58f
7:00pm 4.5ft 8s 9 11 mph 1016.5mb 58f 58f
6:00pm 4ft 8s 9 11 mph 1016.5mb 58f 58f
5:00pm 4ft 8s 9
mph
1016.6mb 58f 58f
4:00pm 4.5ft 8s 9 11 mph 1016.7mb 58f 57f
3:00pm 4.5ft 8s 9 11 mph 1017.2mb 58f 57f
2:00pm 4.5ft 8s 11 13 mph 1017mb 58f 56f
1:00pm 4.5ft 8s 9 11 mph 1017.2mb 58f 56f
12:00pm 5ft 8s 7 9 mph 1017.4mb 58f 56f
11:00am 4.5ft 8s 4 7 mph 1017.2mb 58f 56f
10:00am 4.5ft 8s 9 13 mph 1016.9mb 58f 56f
9:00am 5ft 8s 4
mph
1016.8mb 58f 56f
8:00am 5ft 8s 4 9 mph 1016.7mb 58f 57f
7:00am 4.5ft 8s 7 9 mph 1016.6mb 58f 57f
6:00am 5ft 8s 4 7 mph 1016.1mb 58f 57f
5:00am 4.5ft 8s 4 9 mph 1015.8mb 58f 57f
4:00am 5ft 8s 7 9 mph 1015.8mb 58f 57f
3:00am 5ft 8s 9
mph
1015.5mb 58f 57f
2:00am 5ft 8s 4 7 mph 1015.6mb 58f 57f
1:00am 4.5ft 8s 7 9 mph 1015.6mb 58f 58f
12:00am 5ft 8s 9 11 mph 1014.9mb 58f 57f
Wed 07/20 11:00pm 5ft 8s 4 7 mph 1014.9mb 58f 57f
10:00pm 5ft 8s 4
mph
1014.9mb 58f 58f
9:00pm 5ft 8s 7 9 mph 1014.4mb 58f 58f
8:00pm 5ft 8s 4 7 mph 1014.2mb 58f 57f
7:00pm 5ft 8s 7 9 mph 1014mb 58f 57f
6:00pm 5ft 8s 9
mph
1013.7mb 58f 57f
5:00pm 5ft 9s 9
mph
1013.8mb 58f 57f
4:00pm 5ft 8s 11 13 mph 1013.6mb 58f 57f
3:00pm 5ft 8s 7 9 mph 1013.4mb 58f 57f
2:00pm 6ft 8s 7
mph
1013.2mb 57f 57f
1:00pm 6ft 8s 4 7 mph 1013.1mb 57f 57f
12:00pm 6ft 8s 7 9 mph 1012.9mb 57f 57f
11:00am 5.5ft 8s 7 9 mph 1012.8mb 57f 57f
10:00am 5ft 8s 9 11 mph 1012.7mb 57f 57f
9:00am 6ft 8s 9 11 mph 1012.6mb 57f 57f
8:00am 5ft 8s 7 9 mph 1012.6mb 57f 57f
7:00am 5ft 9s 7 11 mph 1012.6mb 57f 57f
6:00am 5ft 8s 9 11 mph 1012.6mb 57f 57f
5:00am 5ft 8s 9 11 mph 1012.7mb 57f 56f
4:00am 5ft 8s 11 13 mph 1012.8mb 57f 56f
3:00am 5ft 8s 9 13 mph 1012.9mb 57f 56f
2:00am 5ft 8s 9 11 mph 1013.1mb 57f 56f
1:00am 5ft 8s 7 11 mph 1013.4mb 57f 56f
12:00am 6ft 8s 9 11 mph 1013.6mb 57f 56f
Tue 07/19 11:00pm 6ft 8s 7 9 mph 1013.8mb 57f 56f
10:00pm 6ft 8s 7 13 mph 1013.9mb 57f 56f
9:00pm 6ft 9s 9 13 mph 1013.9mb 57f 57f
8:00pm 5.5ft 8s 9 11 mph 1014mb 57f 57f
7:00pm 5ft 8s 11 13 mph 1014.3mb 57f 57f
6:00pm 5ft 9s 9 11 mph 1014.5mb 57f 57f